sensor_id;sensor_type;location;lat;lon;timestamp;P1;durP1;ratioP1;P2;durP2;ratioP2
177;SDS011;77;48.792;9.032;2023-04-22T00:00:49;4.63;;;3.50;;
177;SDS011;77;48.792;9.032;2023-04-22T00:03:14;5.17;;;3.70;;
177;SDS011;77;48.792;9.032;2023-04-22T00:05:39;4.60;;;3.40;;
177;SDS011;77;48.792;9.032;2023-04-22T00:08:05;5.27;;;3.60;;
177;SDS011;77;48.792;9.032;2023-04-22T00:10:30;4.73;;;3.37;;
177;SDS011;77;48.792;9.032;2023-04-22T00:12:55;5.03;;;3.30;;
177;SDS011;77;48.792;9.032;2023-04-22T00:15:20;7.13;;;3.40;;
177;SDS011;77;48.792;9.032;2023-04-22T00:17:47;5.07;;;3.50;;
177;SDS011;77;48.792;9.032;2023-04-22T00:20:12;5.43;;;4.13;;
177;SDS011;77;48.792;9.032;2023-04-22T00:22:37;7.30;;;4.03;;
177;SDS011;77;48.792;9.032;2023-04-22T00:25:03;5.73;;;4.00;;
177;SDS011;77;48.792;9.032;2023-04-22T00:27:28;10.33;;;4.10;;
177;SDS011;77;48.792;9.032;2023-04-22T00:29:53;6.47;;;4.03;;
177;SDS011;77;48.792;9.032;2023-04-22T00:32:18;6.47;;;4.10;;
177;SDS011;77;48.792;9.032;2023-04-22T00:34:45;7.40;;;4.00;;
177;SDS011;77;48.792;9.032;2023-04-22T00:37:10;5.17;;;3.60;;
177;SDS011;77;48.792;9.032;2023-04-22T00:39:35;5.23;;;3.90;;
177;SDS011;77;48.792;9.032;2023-04-22T00:42:00;6.97;;;4.07;;
177;SDS011;77;48.792;9.032;2023-04-22T00:44:26;5.97;;;4.07;;
177;SDS011;77;48.792;9.032;2023-04-22T00:46:52;5.77;;;3.87;;
177;SDS011;77;48.792;9.032;2023-04-22T00:49:17;5.40;;;3.77;;
177;SDS011;77;48.792;9.032;2023-04-22T00:51:45;5.30;;;3.73;;
177;SDS011;77;48.792;9.032;2023-04-22T00:54:10;5.17;;;3.73;;
177;SDS011;77;48.792;9.032;2023-04-22T00:56:35;6.23;;;4.17;;
177;SDS011;77;48.792;9.032;2023-04-22T00:59:01;5.87;;;4.07;;
177;SDS011;77;48.792;9.032;2023-04-22T01:01:27;6.43;;;3.80;;
177;SDS011;77;48.792;9.032;2023-04-22T01:03:53;10.30;;;4.30;;
177;SDS011;77;48.792;9.032;2023-04-22T01:06:19;8.83;;;4.23;;
177;SDS011;77;48.792;9.032;2023-04-22T01:08:45;5.93;;;4.47;;
177;SDS011;77;48.792;9.032;2023-04-22T01:11:10;7.60;;;4.20;;
177;SDS011;77;48.792;9.032;2023-04-22T01:13:36;8.13;;;4.40;;
177;SDS011;77;48.792;9.032;2023-04-22T01:16:01;8.17;;;4.00;;
177;SDS011;77;48.792;9.032;2023-04-22T01:18:26;6.60;;;4.03;;
177;SDS011;77;48.792;9.032;2023-04-22T01:20:52;6.20;;;4.00;;
177;SDS011;77;48.792;9.032;2023-04-22T01:23:19;6.17;;;4.20;;
177;SDS011;77;48.792;9.032;2023-04-22T01:25:44;6.00;;;3.80;;
177;SDS011;77;48.792;9.032;2023-04-22T01:28:10;5.00;;;3.70;;
177;SDS011;77;48.792;9.032;2023-04-22T01:30:35;7.43;;;4.10;;
177;SDS011;77;48.792;9.032;2023-04-22T01:33:01;6.27;;;3.90;;
177;SDS011;77;48.792;9.032;2023-04-22T01:35:26;5.77;;;3.90;;
177;SDS011;77;48.792;9.032;2023-04-22T01:37:51;6.20;;;4.10;;
177;SDS011;77;48.792;9.032;2023-04-22T01:40:17;5.83;;;3.60;;
177;SDS011;77;48.792;9.032;2023-04-22T01:42:43;6.40;;;3.90;;
177;SDS011;77;48.792;9.032;2023-04-22T01:45:08;6.47;;;4.20;;
177;SDS011;77;48.792;9.032;2023-04-22T01:47:34;5.80;;;3.60;;
177;SDS011;77;48.792;9.032;2023-04-22T01:49:59;5.30;;;3.97;;
177;SDS011;77;48.792;9.032;2023-04-22T01:52:25;5.37;;;3.80;;
177;SDS011;77;48.792;9.032;2023-04-22T01:54:50;8.47;;;4.23;;
177;SDS011;77;48.792;9.032;2023-04-22T01:57:17;5.20;;;3.90;;
177;SDS011;77;48.792;9.032;2023-04-22T01:59:42;5.97;;;4.10;;
177;SDS011;77;48.792;9.032;2023-04-22T02:02:07;6.80;;;4.13;;
177;SDS011;77;48.792;9.032;2023-04-22T02:04:32;5.93;;;4.20;;
177;SDS011;77;48.792;9.032;2023-04-22T02:06:58;6.93;;;4.13;;
177;SDS011;77;48.792;9.032;2023-04-22T02:09:23;5.60;;;3.93;;
177;SDS011;77;48.792;9.032;2023-04-22T02:11:48;6.13;;;3.87;;
177;SDS011;77;48.792;9.032;2023-04-22T02:14:15;6.10;;;4.33;;
177;SDS011;77;48.792;9.032;2023-04-22T02:16:40;7.57;;;4.23;;
177;SDS011;77;48.792;9.032;2023-04-22T02:19:05;5.13;;;4.10;;
177;SDS011;77;48.792;9.032;2023-04-22T02:21:30;6.00;;;4.20;;
177;SDS011;77;48.792;9.032;2023-04-22T02:23:55;8.10;;;4.30;;
177;SDS011;77;48.792;9.032;2023-04-22T02:26:20;5.83;;;4.20;;
177;SDS011;77;48.792;9.032;2023-04-22T02:28:46;8.63;;;4.77;;
177;SDS011;77;48.792;9.032;2023-04-22T02:31:12;6.20;;;4.43;;
177;SDS011;77;48.792;9.032;2023-04-22T02:33:37;6.80;;;4.03;;
177;SDS011;77;48.792;9.032;2023-04-22T02:36:03;5.40;;;4.30;;
177;SDS011;77;48.792;9.032;2023-04-22T02:38:28;8.27;;;4.17;;
177;SDS011;77;48.792;9.032;2023-04-22T02:40:53;5.43;;;3.90;;
177;SDS011;77;48.792;9.032;2023-04-22T02:43:18;6.50;;;4.50;;
177;SDS011;77;48.792;9.032;2023-04-22T02:45:43;5.77;;;4.20;;
177;SDS011;77;48.792;9.032;2023-04-22T02:48:10;7.20;;;4.60;;
177;SDS011;77;48.792;9.032;2023-04-22T02:50:35;6.80;;;4.27;;
177;SDS011;77;48.792;9.032;2023-04-22T02:53:00;6.13;;;4.13;;
177;SDS011;77;48.792;9.032;2023-04-22T02:55:26;5.53;;;3.97;;
177;SDS011;77;48.792;9.032;2023-04-22T02:57:51;6.00;;;4.40;;
177;SDS011;77;48.792;9.032;2023-04-22T03:00:16;5.80;;;4.10;;
177;SDS011;77;48.792;9.032;2023-04-22T03:02:41;5.80;;;4.30;;
177;SDS011;77;48.792;9.032;2023-04-22T03:05:08;5.80;;;3.97;;
177;SDS011;77;48.792;9.032;2023-04-22T03:07:33;6.80;;;4.30;;
177;SDS011;77;48.792;9.032;2023-04-22T03:09:59;6.40;;;4.47;;
177;SDS011;77;48.792;9.032;2023-04-22T03:12:24;6.77;;;4.47;;
177;SDS011;77;48.792;9.032;2023-04-22T03:14:49;5.40;;;4.00;;
177;SDS011;77;48.792;9.032;2023-04-22T03:17:14;7.03;;;4.40;;
177;SDS011;77;48.792;9.032;2023-04-22T03:19:40;5.60;;;4.00;;
177;SDS011;77;48.792;9.032;2023-04-22T03:22:06;6.80;;;4.40;;
177;SDS011;77;48.792;9.032;2023-04-22T03:24:31;5.57;;;3.90;;
177;SDS011;77;48.792;9.032;2023-04-22T03:26:56;8.93;;;4.50;;
177;SDS011;77;48.792;9.032;2023-04-22T03:29:22;4.77;;;3.83;;
177;SDS011;77;48.792;9.032;2023-04-22T03:31:47;5.43;;;3.90;;
177;SDS011;77;48.792;9.032;2023-04-22T03:34:12;5.33;;;4.00;;
177;SDS011;77;48.792;9.032;2023-04-22T03:36:37;5.33;;;4.27;;
177;SDS011;77;48.792;9.032;2023-04-22T03:39:04;6.90;;;4.23;;
177;SDS011;77;48.792;9.032;2023-04-22T03:41:29;5.97;;;3.80;;
177;SDS011;77;48.792;9.032;2023-04-22T03:43:54;5.53;;;4.00;;
177;SDS011;77;48.792;9.032;2023-04-22T03:46:19;7.27;;;4.10;;
177;SDS011;77;48.792;9.032;2023-04-22T03:48:44;7.40;;;4.17;;
177;SDS011;77;48.792;9.032;2023-04-22T03:51:10;7.20;;;4.10;;
177;SDS011;77;48.792;9.032;2023-04-22T03:53:35;5.60;;;4.33;;
177;SDS011;77;48.792;9.032;2023-04-22T03:56:01;5.97;;;4.30;;
177;SDS011;77;48.792;9.032;2023-04-22T03:58:27;10.90;;;4.00;;
177;SDS011;77;48.792;9.032;2023-04-22T04:00:52;6.17;;;4.20;;
177;SDS011;77;48.792;9.032;2023-04-22T04:03:17;5.77;;;3.93;;
177;SDS011;77;48.792;9.032;2023-04-22T04:05:42;6.67;;;3.90;;
177;SDS011;77;48.792;9.032;2023-04-22T04:08:07;6.70;;;4.37;;
177;SDS011;77;48.792;9.032;2023-04-22T04:10:32;5.57;;;4.20;;
177;SDS011;77;48.792;9.032;2023-04-22T04:12:59;5.83;;;4.20;;
177;SDS011;77;48.792;9.032;2023-04-22T04:15:24;6.97;;;4.53;;
177;SDS011;77;48.792;9.032;2023-04-22T04:17:49;5.63;;;4.17;;
177;SDS011;77;48.792;9.032;2023-04-22T04:20:15;7.03;;;3.77;;
177;SDS011;77;48.792;9.032;2023-04-22T04:22:40;6.90;;;4.30;;
177;SDS011;77;48.792;9.032;2023-04-22T04:25:05;6.40;;;4.50;;
177;SDS011;77;48.792;9.032;2023-04-22T04:27:31;6.67;;;4.10;;
177;SDS011;77;48.792;9.032;2023-04-22T04:29:57;4.90;;;4.00;;
177;SDS011;77;48.792;9.032;2023-04-22T04:32:22;6.73;;;4.23;;
177;SDS011;77;48.792;9.032;2023-04-22T04:34:48;5.67;;;4.30;;
177;SDS011;77;48.792;9.032;2023-04-22T04:37:13;6.40;;;4.50;;
177;SDS011;77;48.792;9.032;2023-04-22T04:39:38;6.23;;;4.10;;
177;SDS011;77;48.792;9.032;2023-04-22T04:42:03;6.90;;;4.40;;
177;SDS011;77;48.792;9.032;2023-04-22T04:44:28;6.20;;;4.50;;
177;SDS011;77;48.792;9.032;2023-04-22T04:46:55;5.80;;;4.37;;
177;SDS011;77;48.792;9.032;2023-04-22T04:49:20;6.77;;;4.40;;
177;SDS011;77;48.792;9.032;2023-04-22T04:51:46;5.50;;;4.30;;
177;SDS011;77;48.792;9.032;2023-04-22T04:54:11;8.93;;;4.57;;
177;SDS011;77;48.792;9.032;2023-04-22T04:56:36;6.47;;;4.70;;
177;SDS011;77;48.792;9.032;2023-04-22T04:59:01;5.93;;;4.30;;
177;SDS011;77;48.792;9.032;2023-04-22T05:01:26;8.80;;;4.70;;
177;SDS011;77;48.792;9.032;2023-04-22T05:03:53;5.77;;;4.30;;
177;SDS011;77;48.792;9.032;2023-04-22T05:06:18;6.00;;;4.30;;
177;SDS011;77;48.792;9.032;2023-04-22T05:08:43;5.83;;;4.60;;
177;SDS011;77;48.792;9.032;2023-04-22T05:11:09;6.70;;;4.70;;
177;SDS011;77;48.792;9.032;2023-04-22T05:13:34;5.33;;;4.40;;
177;SDS011;77;48.792;9.032;2023-04-22T05:15:59;5.30;;;3.97;;
177;SDS011;77;48.792;9.032;2023-04-22T05:18:24;6.50;;;4.57;;
177;SDS011;77;48.792;9.032;2023-04-22T05:20:51;11.13;;;4.83;;
177;SDS011;77;48.792;9.032;2023-04-22T05:23:16;5.80;;;4.40;;
177;SDS011;77;48.792;9.032;2023-04-22T05:25:41;7.57;;;4.40;;
177;SDS011;77;48.792;9.032;2023-04-22T05:28:06;7.60;;;4.80;;
177;SDS011;77;48.792;9.032;2023-04-22T05:30:31;6.40;;;4.60;;
177;SDS011;77;48.792;9.032;2023-04-22T05:32:57;5.90;;;4.67;;
177;SDS011;77;48.792;9.032;2023-04-22T05:35:22;5.60;;;4.40;;
177;SDS011;77;48.792;9.032;2023-04-22T05:37:48;6.37;;;4.77;;
177;SDS011;77;48.792;9.032;2023-04-22T05:40:14;7.33;;;4.70;;
177;SDS011;77;48.792;9.032;2023-04-22T05:42:39;6.90;;;4.60;;
177;SDS011;77;48.792;9.032;2023-04-22T05:45:04;6.53;;;4.73;;
177;SDS011;77;48.792;9.032;2023-04-22T05:47:30;6.30;;;4.90;;
177;SDS011;77;48.792;9.032;2023-04-22T05:49:55;10.90;;;5.00;;
177;SDS011;77;48.792;9.032;2023-04-22T05:52:20;7.23;;;4.90;;
177;SDS011;77;48.792;9.032;2023-04-22T05:54:47;6.00;;;4.90;;
177;SDS011;77;48.792;9.032;2023-04-22T05:57:12;7.20;;;4.80;;
177;SDS011;77;48.792;9.032;2023-04-22T05:59:37;6.10;;;4.53;;
177;SDS011;77;48.792;9.032;2023-04-22T06:02:02;8.87;;;5.27;;
177;SDS011;77;48.792;9.032;2023-04-22T06:04:27;5.83;;;4.57;;
177;SDS011;77;48.792;9.032;2023-04-22T06:06:53;6.10;;;4.40;;
177;SDS011;77;48.792;9.032;2023-04-22T06:09:18;5.80;;;4.70;;
177;SDS011;77;48.792;9.032;2023-04-22T06:11:44;8.20;;;4.90;;
177;SDS011;77;48.792;9.032;2023-04-22T06:14:10;7.40;;;5.03;;
177;SDS011;77;48.792;9.032;2023-04-22T06:16:35;6.37;;;5.23;;
177;SDS011;77;48.792;9.032;2023-04-22T06:19:00;6.67;;;4.50;;
177;SDS011;77;48.792;9.032;2023-04-22T06:21:26;7.13;;;5.40;;
177;SDS011;77;48.792;9.032;2023-04-22T06:23:51;7.77;;;5.67;;
177;SDS011;77;48.792;9.032;2023-04-22T06:26:16;8.10;;;5.50;;
177;SDS011;77;48.792;9.032;2023-04-22T06:28:43;7.87;;;4.97;;
177;SDS011;77;48.792;9.032;2023-04-22T06:31:08;6.53;;;5.03;;
177;SDS011;77;48.792;9.032;2023-04-22T06:33:33;7.03;;;5.30;;
177;SDS011;77;48.792;9.032;2023-04-22T06:35:58;6.87;;;5.40;;
177;SDS011;77;48.792;9.032;2023-04-22T06:38:24;7.83;;;5.37;;
177;SDS011;77;48.792;9.032;2023-04-22T06:40:49;7.47;;;5.50;;
177;SDS011;77;48.792;9.032;2023-04-22T06:43:14;9.80;;;5.40;;
177;SDS011;77;48.792;9.032;2023-04-22T06:45:41;6.47;;;4.90;;
177;SDS011;77;48.792;9.032;2023-04-22T06:48:06;8.30;;;5.53;;
177;SDS011;77;48.792;9.032;2023-04-22T06:50:31;9.07;;;5.90;;
177;SDS011;77;48.792;9.032;2023-04-22T06:52:56;8.47;;;6.10;;
177;SDS011;77;48.792;9.032;2023-04-22T06:55:21;7.07;;;5.43;;
177;SDS011;77;48.792;9.032;2023-04-22T06:57:47;7.27;;;5.37;;
177;SDS011;77;48.792;9.032;2023-04-22T07:00:12;7.90;;;5.20;;
177;SDS011;77;48.792;9.032;2023-04-22T07:02:39;7.57;;;5.57;;
177;SDS011;77;48.792;9.032;2023-04-22T07:05:04;7.57;;;5.40;;
177;SDS011;77;48.792;9.032;2023-04-22T07:07:29;7.07;;;5.60;;
177;SDS011;77;48.792;9.032;2023-04-22T07:09:54;8.20;;;5.40;;
177;SDS011;77;48.792;9.032;2023-04-22T07:12:20;7.43;;;5.13;;
177;SDS011;77;48.792;9.032;2023-04-22T07:14:45;5.90;;;5.00;;
177;SDS011;77;48.792;9.032;2023-04-22T07:17:11;5.90;;;4.40;;
177;SDS011;77;48.792;9.032;2023-04-22T07:19:38;6.43;;;5.03;;
177;SDS011;77;48.792;9.032;2023-04-22T07:22:03;6.83;;;4.90;;
177;SDS011;77;48.792;9.032;2023-04-22T07:24:29;8.93;;;5.00;;
177;SDS011;77;48.792;9.032;2023-04-22T07:26:54;6.83;;;4.90;;
177;SDS011;77;48.792;9.032;2023-04-22T07:29:19;6.00;;;4.87;;
177;SDS011;77;48.792;9.032;2023-04-22T07:31:44;6.00;;;4.40;;
177;SDS011;77;48.792;9.032;2023-04-22T07:34:09;7.03;;;4.60;;
177;SDS011;77;48.792;9.032;2023-04-22T07:36:36;6.53;;;4.50;;
177;SDS011;77;48.792;9.032;2023-04-22T07:39:01;6.53;;;4.77;;
177;SDS011;77;48.792;9.032;2023-04-22T07:41:26;5.37;;;4.33;;
177;SDS011;77;48.792;9.032;2023-04-22T07:44:02;5.63;;;4.50;;
177;SDS011;77;48.792;9.032;2023-04-22T07:46:28;5.60;;;4.37;;
177;SDS011;77;48.792;9.032;2023-04-22T07:48:53;5.60;;;4.47;;
177;SDS011;77;48.792;9.032;2023-04-22T07:51:18;10.63;;;4.60;;
177;SDS011;77;48.792;9.032;2023-04-22T07:53:45;8.73;;;4.70;;
177;SDS011;77;48.792;9.032;2023-04-22T07:56:10;6.13;;;4.87;;
177;SDS011;77;48.792;9.032;2023-04-22T07:58:35;7.30;;;4.53;;
177;SDS011;77;48.792;9.032;2023-04-22T08:01:01;5.70;;;4.40;;
177;SDS011;77;48.792;9.032;2023-04-22T08:03:26;6.20;;;4.53;;
177;SDS011;77;48.792;9.032;2023-04-22T08:05:51;7.00;;;4.60;;
177;SDS011;77;48.792;9.032;2023-04-22T08:08:16;6.93;;;5.23;;
177;SDS011;77;48.792;9.032;2023-04-22T08:10:43;7.40;;;4.40;;
177;SDS011;77;48.792;9.032;2023-04-22T08:13:09;8.80;;;5.10;;
177;SDS011;77;48.792;9.032;2023-04-22T08:15:37;6.03;;;4.40;;
177;SDS011;77;48.792;9.032;2023-04-22T08:18:03;5.40;;;4.40;;
177;SDS011;77;48.792;9.032;2023-04-22T08:20:28;5.20;;;4.13;;
177;SDS011;77;48.792;9.032;2023-04-22T08:22:53;6.60;;;4.50;;
177;SDS011;77;48.792;9.032;2023-04-22T08:25:18;7.03;;;4.77;;
177;SDS011;77;48.792;9.032;2023-04-22T08:27:45;6.77;;;4.80;;
177;SDS011;77;48.792;9.032;2023-04-22T08:30:10;6.30;;;4.63;;
177;SDS011;77;48.792;9.032;2023-04-22T08:32:36;6.87;;;4.30;;
177;SDS011;77;48.792;9.032;2023-04-22T08:35:02;6.57;;;4.27;;
177;SDS011;77;48.792;9.032;2023-04-22T08:37:28;6.43;;;4.10;;
177;SDS011;77;48.792;9.032;2023-04-22T08:39:53;7.30;;;4.07;;
177;SDS011;77;48.792;9.032;2023-04-22T08:42:19;4.50;;;3.50;;
177;SDS011;77;48.792;9.032;2023-04-22T08:44:45;5.20;;;3.73;;
177;SDS011;77;48.792;9.032;2023-04-22T08:47:11;4.80;;;3.63;;
177;SDS011;77;48.792;9.032;2023-04-22T08:49:37;4.70;;;3.50;;
177;SDS011;77;48.792;9.032;2023-04-22T08:52:02;4.63;;;3.57;;
177;SDS011;77;48.792;9.032;2023-04-22T08:54:27;6.73;;;3.13;;
177;SDS011;77;48.792;9.032;2023-04-22T08:56:53;9.23;;;3.20;;
177;SDS011;77;48.792;9.032;2023-04-22T08:59:19;4.77;;;2.93;;
177;SDS011;77;48.792;9.032;2023-04-22T09:01:48;3.90;;;3.10;;
177;SDS011;77;48.792;9.032;2023-04-22T09:04:15;3.33;;;2.90;;
177;SDS011;77;48.792;9.032;2023-04-22T09:06:41;3.63;;;2.87;;
177;SDS011;77;48.792;9.032;2023-04-22T09:09:06;4.90;;;3.00;;
177;SDS011;77;48.792;9.032;2023-04-22T09:11:32;3.23;;;2.80;;
177;SDS011;77;48.792;9.032;2023-04-22T09:13:57;3.50;;;2.60;;
177;SDS011;77;48.792;9.032;2023-04-22T09:16:22;3.70;;;2.90;;
177;SDS011;77;48.792;9.032;2023-04-22T09:18:49;3.43;;;2.40;;
177;SDS011;77;48.792;9.032;2023-04-22T09:21:14;5.10;;;2.80;;
177;SDS011;77;48.792;9.032;2023-04-22T09:23:47;3.10;;;2.50;;
177;SDS011;77;48.792;9.032;2023-04-22T09:26:13;4.70;;;2.60;;
177;SDS011;77;48.792;9.032;2023-04-22T09:28:46;4.60;;;2.53;;
177;SDS011;77;48.792;9.032;2023-04-22T09:31:13;7.23;;;2.60;;
177;SDS011;77;48.792;9.032;2023-04-22T09:33:39;7.33;;;2.80;;
177;SDS011;77;48.792;9.032;2023-04-22T09:36:09;8.03;;;2.70;;
177;SDS011;77;48.792;9.032;2023-04-22T09:38:37;4.20;;;2.90;;
177;SDS011;77;48.792;9.032;2023-04-22T09:41:07;4.47;;;2.67;;
177;SDS011;77;48.792;9.032;2023-04-22T09:43:33;2.93;;;2.43;;
177;SDS011;77;48.792;9.032;2023-04-22T09:45:58;2.70;;;2.30;;
177;SDS011;77;48.792;9.032;2023-04-22T09:48:24;5.03;;;2.90;;
177;SDS011;77;48.792;9.032;2023-04-22T09:50:50;3.70;;;2.70;;
177;SDS011;77;48.792;9.032;2023-04-22T09:53:18;6.70;;;2.70;;
177;SDS011;77;48.792;9.032;2023-04-22T09:55:44;4.67;;;2.90;;
177;SDS011;77;48.792;9.032;2023-04-22T09:58:10;5.30;;;2.93;;
177;SDS011;77;48.792;9.032;2023-04-22T10:00:38;5.47;;;2.93;;
177;SDS011;77;48.792;9.032;2023-04-22T10:03:04;4.20;;;2.87;;
177;SDS011;77;48.792;9.032;2023-04-22T10:05:35;3.60;;;2.80;;
177;SDS011;77;48.792;9.032;2023-04-22T10:08:00;4.80;;;2.80;;
177;SDS011;77;48.792;9.032;2023-04-22T10:10:29;4.63;;;2.70;;
177;SDS011;77;48.792;9.032;2023-04-22T10:12:54;3.40;;;2.80;;
177;SDS011;77;48.792;9.032;2023-04-22T10:15:21;5.90;;;3.00;;
177;SDS011;77;48.792;9.032;2023-04-22T10:17:47;4.60;;;2.90;;
177;SDS011;77;48.792;9.032;2023-04-22T10:20:15;5.23;;;2.60;;
177;SDS011;77;48.792;9.032;2023-04-22T10:22:41;4.60;;;2.60;;
177;SDS011;77;48.792;9.032;2023-04-22T10:25:09;3.63;;;2.63;;
177;SDS011;77;48.792;9.032;2023-04-22T10:27:37;3.70;;;2.83;;
177;SDS011;77;48.792;9.032;2023-04-22T10:30:02;5.23;;;2.70;;
177;SDS011;77;48.792;9.032;2023-04-22T10:32:27;4.70;;;2.90;;
177;SDS011;77;48.792;9.032;2023-04-22T10:35:09;4.70;;;3.07;;
177;SDS011;77;48.792;9.032;2023-04-22T10:37:34;7.90;;;3.33;;
177;SDS011;77;48.792;9.032;2023-04-22T10:40:07;5.47;;;2.93;;
177;SDS011;77;48.792;9.032;2023-04-22T10:42:32;3.87;;;2.90;;
177;SDS011;77;48.792;9.032;2023-04-22T10:45:00;3.60;;;2.70;;
177;SDS011;77;48.792;9.032;2023-04-22T10:47:27;5.07;;;3.00;;
177;SDS011;77;48.792;9.032;2023-04-22T10:52:32;3.93;;;2.90;;
177;SDS011;77;48.792;9.032;2023-04-22T10:54:57;6.40;;;2.80;;
177;SDS011;77;48.792;9.032;2023-04-22T10:57:27;5.70;;;3.10;;
177;SDS011;77;48.792;9.032;2023-04-22T10:59:53;4.23;;;3.00;;
177;SDS011;77;48.792;9.032;2023-04-22T11:02:20;3.40;;;2.97;;
177;SDS011;77;48.792;9.032;2023-04-22T11:04:46;3.67;;;2.80;;
177;SDS011;77;48.792;9.032;2023-04-22T11:07:12;6.73;;;3.13;;
177;SDS011;77;48.792;9.032;2023-04-22T11:09:38;3.90;;;2.83;;
177;SDS011;77;48.792;9.032;2023-04-22T11:14:43;4.30;;;2.93;;
177;SDS011;77;48.792;9.032;2023-04-22T11:17:10;4.37;;;2.90;;
177;SDS011;77;48.792;9.032;2023-04-22T11:19:36;5.20;;;3.17;;
177;SDS011;77;48.792;9.032;2023-04-22T11:22:01;5.00;;;2.90;;
177;SDS011;77;48.792;9.032;2023-04-22T11:24:26;5.10;;;3.30;;
177;SDS011;77;48.792;9.032;2023-04-22T11:26:53;7.60;;;3.10;;
177;SDS011;77;48.792;9.032;2023-04-22T11:29:19;3.77;;;2.87;;
177;SDS011;77;48.792;9.032;2023-04-22T11:31:45;6.47;;;3.20;;
177;SDS011;77;48.792;9.032;2023-04-22T11:34:10;3.77;;;2.87;;
177;SDS011;77;48.792;9.032;2023-04-22T11:36:36;4.87;;;3.13;;
177;SDS011;77;48.792;9.032;2023-04-22T11:39:07;5.87;;;3.33;;
177;SDS011;77;48.792;9.032;2023-04-22T11:41:32;5.30;;;2.97;;
177;SDS011;77;48.792;9.032;2023-04-22T11:43:58;3.97;;;3.00;;
177;SDS011;77;48.792;9.032;2023-04-22T11:46:27;4.80;;;2.87;;
177;SDS011;77;48.792;9.032;2023-04-22T11:48:52;4.90;;;2.90;;
177;SDS011;77;48.792;9.032;2023-04-22T11:51:18;6.27;;;3.20;;
177;SDS011;77;48.792;9.032;2023-04-22T11:53:49;4.20;;;3.00;;
177;SDS011;77;48.792;9.032;2023-04-22T11:56:15;6.57;;;3.17;;
177;SDS011;77;48.792;9.032;2023-04-22T11:58:40;4.80;;;3.13;;
177;SDS011;77;48.792;9.032;2023-04-22T12:01:05;3.60;;;3.00;;
177;SDS011;77;48.792;9.032;2023-04-22T12:03:32;5.30;;;3.00;;
177;SDS011;77;48.792;9.032;2023-04-22T12:05:58;4.80;;;3.07;;
177;SDS011;77;48.792;9.032;2023-04-22T12:08:24;5.10;;;3.10;;
177;SDS011;77;48.792;9.032;2023-04-22T12:10:51;5.63;;;3.10;;
177;SDS011;77;48.792;9.032;2023-04-22T12:13:17;7.87;;;3.17;;
177;SDS011;77;48.792;9.032;2023-04-22T12:15:43;4.17;;;2.80;;
177;SDS011;77;48.792;9.032;2023-04-22T12:18:09;7.63;;;3.00;;
177;SDS011;77;48.792;9.032;2023-04-22T12:20:34;4.97;;;3.23;;
177;SDS011;77;48.792;9.032;2023-04-22T12:23:00;6.80;;;2.90;;
177;SDS011;77;48.792;9.032;2023-04-22T12:25:25;4.43;;;3.00;;
177;SDS011;77;48.792;9.032;2023-04-22T12:27:52;5.10;;;2.97;;
177;SDS011;77;48.792;9.032;2023-04-22T12:30:17;4.30;;;2.70;;
177;SDS011;77;48.792;9.032;2023-04-22T12:32:42;4.60;;;2.80;;
177;SDS011;77;48.792;9.032;2023-04-22T12:35:07;6.70;;;2.80;;
177;SDS011;77;48.792;9.032;2023-04-22T12:37:33;3.83;;;2.83;;
177;SDS011;77;48.792;9.032;2023-04-22T12:39:58;7.83;;;3.00;;
177;SDS011;77;48.792;9.032;2023-04-22T12:42:23;5.10;;;3.00;;
177;SDS011;77;48.792;9.032;2023-04-22T12:44:50;7.07;;;3.00;;
177;SDS011;77;48.792;9.032;2023-04-22T12:47:15;8.73;;;3.30;;
177;SDS011;77;48.792;9.032;2023-04-22T12:49:40;7.00;;;2.83;;
177;SDS011;77;48.792;9.032;2023-04-22T12:52:05;3.30;;;2.67;;
177;SDS011;77;48.792;9.032;2023-04-22T12:54:30;5.83;;;2.67;;
177;SDS011;77;48.792;9.032;2023-04-22T12:56:56;4.27;;;3.17;;
177;SDS011;77;48.792;9.032;2023-04-22T12:59:21;7.20;;;3.10;;
177;SDS011;77;48.792;9.032;2023-04-22T13:01:47;7.07;;;3.00;;
177;SDS011;77;48.792;9.032;2023-04-22T13:04:13;4.67;;;2.83;;
177;SDS011;77;48.792;9.032;2023-04-22T13:06:38;5.60;;;3.20;;
177;SDS011;77;48.792;9.032;2023-04-22T13:09:03;3.90;;;3.00;;
177;SDS011;77;48.792;9.032;2023-04-22T13:11:28;4.70;;;3.10;;
177;SDS011;77;48.792;9.032;2023-04-22T13:13:53;5.77;;;3.40;;
177;SDS011;77;48.792;9.032;2023-04-22T13:16:18;9.17;;;3.50;;
177;SDS011;77;48.792;9.032;2023-04-22T13:18:45;4.00;;;3.10;;
177;SDS011;77;48.792;9.032;2023-04-22T13:21:10;4.50;;;3.10;;
177;SDS011;77;48.792;9.032;2023-04-22T13:23:35;4.30;;;3.10;;
177;SDS011;77;48.792;9.032;2023-04-22T13:26:01;4.77;;;3.40;;
177;SDS011;77;48.792;9.032;2023-04-22T13:28:26;4.13;;;3.10;;
177;SDS011;77;48.792;9.032;2023-04-22T13:30:52;4.00;;;3.20;;
177;SDS011;77;48.792;9.032;2023-04-22T13:33:18;6.17;;;3.40;;
177;SDS011;77;48.792;9.032;2023-04-22T13:35:44;5.03;;;3.57;;
177;SDS011;77;48.792;9.032;2023-04-22T13:38:09;5.90;;;3.20;;
177;SDS011;77;48.792;9.032;2023-04-22T13:40:35;4.10;;;3.07;;
177;SDS011;77;48.792;9.032;2023-04-22T13:43:00;7.13;;;3.30;;
177;SDS011;77;48.792;9.032;2023-04-22T13:45:25;6.03;;;3.60;;
177;SDS011;77;48.792;9.032;2023-04-22T13:47:50;4.90;;;3.17;;
177;SDS011;77;48.792;9.032;2023-04-22T13:50:15;10.00;;;3.00;;
177;SDS011;77;48.792;9.032;2023-04-22T13:52:42;5.60;;;3.17;;
177;SDS011;77;48.792;9.032;2023-04-22T13:55:08;6.43;;;3.17;;
177;SDS011;77;48.792;9.032;2023-04-22T13:57:33;6.67;;;3.47;;
177;SDS011;77;48.792;9.032;2023-04-22T13:59:58;5.10;;;3.03;;
177;SDS011;77;48.792;9.032;2023-04-22T14:02:23;6.70;;;3.03;;
177;SDS011;77;48.792;9.032;2023-04-22T14:04:49;7.20;;;3.20;;
177;SDS011;77;48.792;9.032;2023-04-22T14:07:14;3.40;;;3.03;;
177;SDS011;77;48.792;9.032;2023-04-22T14:09:41;5.73;;;3.47;;
177;SDS011;77;48.792;9.032;2023-04-22T14:12:06;4.90;;;3.10;;
177;SDS011;77;48.792;9.032;2023-04-22T14:14:31;8.83;;;3.27;;
177;SDS011;77;48.792;9.032;2023-04-22T14:16:57;4.67;;;2.97;;
177;SDS011;77;48.792;9.032;2023-04-22T14:19:22;4.03;;;3.10;;
177;SDS011;77;48.792;9.032;2023-04-22T14:21:47;6.50;;;3.10;;
177;SDS011;77;48.792;9.032;2023-04-22T14:24:12;8.73;;;3.37;;
177;SDS011;77;48.792;9.032;2023-04-22T14:26:39;3.70;;;2.97;;
177;SDS011;77;48.792;9.032;2023-04-22T14:29:04;4.67;;;3.27;;
177;SDS011;77;48.792;9.032;2023-04-22T14:31:30;5.47;;;3.40;;
177;SDS011;77;48.792;9.032;2023-04-22T14:33:55;5.53;;;3.20;;
177;SDS011;77;48.792;9.032;2023-04-22T14:36:20;5.43;;;3.50;;
177;SDS011;77;48.792;9.032;2023-04-22T14:38:46;7.03;;;3.20;;
177;SDS011;77;48.792;9.032;2023-04-22T14:41:11;6.20;;;3.50;;
177;SDS011;77;48.792;9.032;2023-04-22T14:43:37;11.00;;;3.50;;
177;SDS011;77;48.792;9.032;2023-04-22T14:46:03;5.03;;;3.40;;
177;SDS011;77;48.792;9.032;2023-04-22T14:48:28;5.23;;;3.20;;
177;SDS011;77;48.792;9.032;2023-04-22T14:50:53;8.60;;;3.10;;
177;SDS011;77;48.792;9.032;2023-04-22T14:53:18;4.60;;;3.10;;
177;SDS011;77;48.792;9.032;2023-04-22T14:55:44;5.90;;;3.30;;
177;SDS011;77;48.792;9.032;2023-04-22T14:58:09;5.90;;;3.30;;
177;SDS011;77;48.792;9.032;2023-04-22T15:00:36;5.00;;;3.13;;
177;SDS011;77;48.792;9.032;2023-04-22T15:03:01;6.93;;;3.00;;
177;SDS011;77;48.792;9.032;2023-04-22T15:05:26;4.50;;;3.00;;
177;SDS011;77;48.792;9.032;2023-04-22T15:07:52;6.60;;;3.10;;
177;SDS011;77;48.792;9.032;2023-04-22T15:10:17;4.53;;;2.93;;
177;SDS011;77;48.792;9.032;2023-04-22T15:12:43;4.30;;;3.03;;
177;SDS011;77;48.792;9.032;2023-04-22T15:15:08;6.40;;;3.33;;
177;SDS011;77;48.792;9.032;2023-04-22T15:17:35;5.00;;;3.20;;
177;SDS011;77;48.792;9.032;2023-04-22T15:20:00;5.43;;;4.10;;
177;SDS011;77;48.792;9.032;2023-04-22T15:22:25;6.40;;;4.00;;
177;SDS011;77;48.792;9.032;2023-04-22T15:24:51;4.63;;;3.47;;
177;SDS011;77;48.792;9.032;2023-04-22T15:27:16;6.60;;;3.53;;
177;SDS011;77;48.792;9.032;2023-04-22T15:29:42;9.63;;;4.07;;
177;SDS011;77;48.792;9.032;2023-04-22T15:32:07;4.30;;;3.20;;
177;SDS011;77;48.792;9.032;2023-04-22T15:34:33;6.90;;;3.43;;
177;SDS011;77;48.792;9.032;2023-04-22T15:36:58;6.17;;;3.40;;
177;SDS011;77;48.792;9.032;2023-04-22T15:39:24;6.17;;;3.00;;
177;SDS011;77;48.792;9.032;2023-04-22T15:41:49;14.73;;;3.20;;
177;SDS011;77;48.792;9.032;2023-04-22T15:44:14;4.40;;;3.27;;
177;SDS011;77;48.792;9.032;2023-04-22T15:46:39;4.97;;;3.20;;
177;SDS011;77;48.792;9.032;2023-04-22T15:49:04;5.43;;;3.57;;
177;SDS011;77;48.792;9.032;2023-04-22T15:51:31;5.50;;;3.50;;
177;SDS011;77;48.792;9.032;2023-04-22T15:53:56;9.23;;;3.93;;